sensor_id;sensor_type;location;lat;lon;timestamp;P1;durP1;ratioP1;P2;durP2;ratioP2
56037;SDS011;41907;47.848;9.000;2022-09-27T00:01:01;36.50;;;28.30;;
56037;SDS011;41907;47.848;9.000;2022-09-27T00:03:29;25.15;;;18.40;;
56037;SDS011;41907;47.848;9.000;2022-09-27T00:06:28;34.42;;;23.00;;
56037;SDS011;41907;47.848;9.000;2022-09-27T00:08:48;30.60;;;21.10;;
56037;SDS011;41907;47.848;9.000;2022-09-27T00:11:19;31.05;;;23.15;;
56037;SDS011;41907;47.848;9.000;2022-09-27T00:13:50;30.60;;;22.23;;
56037;SDS011;41907;47.848;9.000;2022-09-27T00:16:16;33.38;;;27.20;;
56037;SDS011;41907;47.848;9.000;2022-09-27T00:18:42;28.77;;;23.33;;
56037;SDS011;41907;47.848;9.000;2022-09-27T00:21:09;40.88;;;27.98;;
56037;SDS011;41907;47.848;9.000;2022-09-27T00:23:36;49.35;;;36.88;;
56037;SDS011;41907;47.848;9.000;2022-09-27T00:26:02;69.70;;;51.03;;
56037;SDS011;41907;47.848;9.000;2022-09-27T00:28:28;45.88;;;34.17;;
56037;SDS011;41907;47.848;9.000;2022-09-27T00:30:55;45.65;;;30.20;;
56037;SDS011;41907;47.848;9.000;2022-09-27T00:33:20;18.77;;;10.60;;
56037;SDS011;41907;47.848;9.000;2022-09-27T00:35:46;28.30;;;19.10;;
56037;SDS011;41907;47.848;9.000;2022-09-27T00:38:11;14.27;;;9.50;;
56037;SDS011;41907;47.848;9.000;2022-09-27T00:40:37;12.93;;;9.35;;
56037;SDS011;41907;47.848;9.000;2022-09-27T00:43:08;34.30;;;20.80;;
56037;SDS011;41907;47.848;9.000;2022-09-27T00:45:40;17.65;;;10.52;;
56037;SDS011;41907;47.848;9.000;2022-09-27T00:48:05;43.90;;;25.15;;
56037;SDS011;41907;47.848;9.000;2022-09-27T00:50:31;27.17;;;17.65;;
56037;SDS011;41907;47.848;9.000;2022-09-27T00:55:46;12.23;;;9.27;;
56037;SDS011;41907;47.848;9.000;2022-09-27T00:58:16;31.00;;;22.02;;
56037;SDS011;41907;47.848;9.000;2022-09-27T01:00:46;27.63;;;22.63;;
56037;SDS011;41907;47.848;9.000;2022-09-27T01:03:19;10.80;;;8.40;;
56037;SDS011;41907;47.848;9.000;2022-09-27T01:05:58;6.55;;;5.65;;
56037;SDS011;41907;47.848;9.000;2022-09-27T01:08:24;10.00;;;8.50;;
56037;SDS011;41907;47.848;9.000;2022-09-27T01:11:02;8.77;;;5.30;;
56037;SDS011;41907;47.848;9.000;2022-09-27T01:13:33;6.97;;;5.25;;
56037;SDS011;41907;47.848;9.000;2022-09-27T01:16:24;8.00;;;6.50;;
56037;SDS011;41907;47.848;9.000;2022-09-27T01:19:10;6.55;;;2.55;;
56037;SDS011;41907;47.848;9.000;2022-09-27T01:21:52;5.28;;;2.05;;
56037;SDS011;41907;47.848;9.000;2022-09-27T01:27:28;5.35;;;2.33;;
56037;SDS011;41907;47.848;9.000;2022-09-27T01:33:04;3.22;;;1.58;;
56037;SDS011;41907;47.848;9.000;2022-09-27T01:38:43;4.10;;;2.10;;
56037;SDS011;41907;47.848;9.000;2022-09-27T01:41:33;2.90;;;1.58;;
56037;SDS011;41907;47.848;9.000;2022-09-27T01:44:11;1.88;;;1.10;;
56037;SDS011;41907;47.848;9.000;2022-09-27T01:46:57;4.40;;;2.22;;
56037;SDS011;41907;47.848;9.000;2022-09-27T01:49:32;4.07;;;2.20;;
56037;SDS011;41907;47.848;9.000;2022-09-27T01:52:06;3.95;;;1.73;;
56037;SDS011;41907;47.848;9.000;2022-09-27T01:54:44;3.70;;;2.40;;
56037;SDS011;41907;47.848;9.000;2022-09-27T01:57:16;5.63;;;3.80;;
56037;SDS011;41907;47.848;9.000;2022-09-27T01:59:49;5.57;;;2.75;;
56037;SDS011;41907;47.848;9.000;2022-09-27T02:02:19;5.40;;;2.03;;
56037;SDS011;41907;47.848;9.000;2022-09-27T02:04:49;3.90;;;1.90;;
56037;SDS011;41907;47.848;9.000;2022-09-27T02:07:21;3.88;;;2.28;;
56037;SDS011;41907;47.848;9.000;2022-09-27T02:10:24;6.03;;;3.38;;
56037;SDS011;41907;47.848;9.000;2022-09-27T02:12:48;7.65;;;5.20;;
56037;SDS011;41907;47.848;9.000;2022-09-27T02:15:21;21.08;;;12.88;;
56037;SDS011;41907;47.848;9.000;2022-09-27T02:18:01;19.17;;;13.02;;
56037;SDS011;41907;47.848;9.000;2022-09-27T02:20:38;142.43;;;76.50;;
56037;SDS011;41907;47.848;9.000;2022-09-27T02:30:55;22.77;;;14.00;;
56037;SDS011;41907;47.848;9.000;2022-09-27T02:33:33;12.38;;;7.55;;
56037;SDS011;41907;47.848;9.000;2022-09-27T02:36:03;14.88;;;8.88;;
56037;SDS011;41907;47.848;9.000;2022-09-27T02:38:29;15.52;;;12.68;;
56037;SDS011;41907;47.848;9.000;2022-09-27T02:40:54;4.07;;;3.63;;
56037;SDS011;41907;47.848;9.000;2022-09-27T02:43:20;1.45;;;0.98;;
56037;SDS011;41907;47.848;9.000;2022-09-27T02:48:54;0.45;;;0.35;;
56037;SDS011;41907;47.848;9.000;2022-09-27T03:05:31;3.00;;;1.80;;
56037;SDS011;41907;47.848;9.000;2022-09-27T03:08:01;2.38;;;0.90;;
56037;SDS011;41907;47.848;9.000;2022-09-27T03:10:28;1.30;;;0.50;;
56037;SDS011;41907;47.848;9.000;2022-09-27T03:12:54;1.83;;;1.42;;
56037;SDS011;41907;47.848;9.000;2022-09-27T03:15:21;1.08;;;0.60;;
56037;SDS011;41907;47.848;9.000;2022-09-27T03:17:46;1.42;;;0.80;;
56037;SDS011;41907;47.848;9.000;2022-09-27T03:20:11;1.52;;;0.40;;
56037;SDS011;41907;47.848;9.000;2022-09-27T03:22:37;1.13;;;0.30;;
56037;SDS011;41907;47.848;9.000;2022-09-27T03:25:03;0.82;;;0.30;;
56037;SDS011;41907;47.848;9.000;2022-09-27T03:27:29;1.65;;;0.65;;
56037;SDS011;41907;47.848;9.000;2022-09-27T03:29:55;0.95;;;0.30;;
56037;SDS011;41907;47.848;9.000;2022-09-27T03:32:20;1.38;;;1.23;;
56037;SDS011;41907;47.848;9.000;2022-09-27T03:34:46;5.03;;;0.63;;
56037;SDS011;41907;47.848;9.000;2022-09-27T03:37:11;4.38;;;0.85;;
56037;SDS011;41907;47.848;9.000;2022-09-27T03:39:37;1.45;;;0.50;;
56037;SDS011;41907;47.848;9.000;2022-09-27T03:42:02;0.38;;;0.38;;
56037;SDS011;41907;47.848;9.000;2022-09-27T03:44:27;1.20;;;0.70;;
56037;SDS011;41907;47.848;9.000;2022-09-27T03:46:53;1.25;;;0.30;;
56037;SDS011;41907;47.848;9.000;2022-09-27T03:49:18;1.35;;;0.70;;
56037;SDS011;41907;47.848;9.000;2022-09-27T03:51:44;1.42;;;1.20;;
56037;SDS011;41907;47.848;9.000;2022-09-27T03:54:09;6.80;;;4.55;;
56037;SDS011;41907;47.848;9.000;2022-09-27T03:56:34;6.97;;;4.80;;
56037;SDS011;41907;47.848;9.000;2022-09-27T03:59:00;3.75;;;2.97;;
56037;SDS011;41907;47.848;9.000;2022-09-27T04:01:25;4.65;;;2.58;;
56037;SDS011;41907;47.848;9.000;2022-09-27T04:03:51;5.95;;;4.18;;
56037;SDS011;41907;47.848;9.000;2022-09-27T04:06:17;29.38;;;18.25;;
56037;SDS011;41907;47.848;9.000;2022-09-27T04:08:43;11.93;;;9.32;;
56037;SDS011;41907;47.848;9.000;2022-09-27T04:11:10;13.18;;;9.57;;
56037;SDS011;41907;47.848;9.000;2022-09-27T04:13:35;17.55;;;12.80;;
56037;SDS011;41907;47.848;9.000;2022-09-27T04:16:01;21.95;;;15.23;;
56037;SDS011;41907;47.848;9.000;2022-09-27T04:18:27;24.80;;;16.02;;
56037;SDS011;41907;47.848;9.000;2022-09-27T04:20:52;11.43;;;7.45;;
56037;SDS011;41907;47.848;9.000;2022-09-27T04:23:17;14.00;;;8.02;;
56037;SDS011;41907;47.848;9.000;2022-09-27T04:25:44;13.40;;;7.35;;
56037;SDS011;41907;47.848;9.000;2022-09-27T04:28:10;64.15;;;48.10;;
56037;SDS011;41907;47.848;9.000;2022-09-27T04:30:36;58.90;;;45.35;;
56037;SDS011;41907;47.848;9.000;2022-09-27T04:33:01;32.75;;;24.42;;
56037;SDS011;41907;47.848;9.000;2022-09-27T04:35:26;9.32;;;7.05;;
56037;SDS011;41907;47.848;9.000;2022-09-27T04:38:10;27.60;;;19.55;;
56037;SDS011;41907;47.848;9.000;2022-09-27T04:40:37;32.30;;;25.35;;
56037;SDS011;41907;47.848;9.000;2022-09-27T04:43:02;34.30;;;26.95;;
56037;SDS011;41907;47.848;9.000;2022-09-27T04:45:28;22.85;;;17.00;;
56037;SDS011;41907;47.848;9.000;2022-09-27T04:47:54;24.85;;;19.38;;
56037;SDS011;41907;47.848;9.000;2022-09-27T04:50:19;30.00;;;22.13;;
56037;SDS011;41907;47.848;9.000;2022-09-27T04:52:51;36.65;;;25.60;;
56037;SDS011;41907;47.848;9.000;2022-09-27T04:55:17;44.88;;;30.15;;
56037;SDS011;41907;47.848;9.000;2022-09-27T04:57:44;21.45;;;16.20;;
56037;SDS011;41907;47.848;9.000;2022-09-27T05:00:10;23.23;;;16.33;;
56037;SDS011;41907;47.848;9.000;2022-09-27T05:02:37;35.90;;;23.13;;
56037;SDS011;41907;47.848;9.000;2022-09-27T05:05:03;37.22;;;23.45;;
56037;SDS011;41907;47.848;9.000;2022-09-27T05:07:28;44.67;;;30.52;;
56037;SDS011;41907;47.848;9.000;2022-09-27T05:09:54;30.17;;;21.77;;
56037;SDS011;41907;47.848;9.000;2022-09-27T05:12:20;10.68;;;7.22;;
56037;SDS011;41907;47.848;9.000;2022-09-27T05:14:46;12.07;;;8.82;;
56037;SDS011;41907;47.848;9.000;2022-09-27T05:17:12;3.60;;;1.67;;
56037;SDS011;41907;47.848;9.000;2022-09-27T05:19:37;1.30;;;1.20;;
56037;SDS011;41907;47.848;9.000;2022-09-27T05:22:04;5.60;;;1.52;;
56037;SDS011;41907;47.848;9.000;2022-09-27T05:24:32;2.88;;;1.42;;
56037;SDS011;41907;47.848;9.000;2022-09-27T05:26:58;0.60;;;0.50;;
56037;SDS011;41907;47.848;9.000;2022-09-27T05:29:24;1.98;;;0.60;;
56037;SDS011;41907;47.848;9.000;2022-09-27T05:31:50;6.80;;;3.47;;
56037;SDS011;41907;47.848;9.000;2022-09-27T05:34:15;11.02;;;4.53;;
56037;SDS011;41907;47.848;9.000;2022-09-27T05:36:42;8.13;;;5.50;;
56037;SDS011;41907;47.848;9.000;2022-09-27T05:39:07;8.40;;;4.30;;
56037;SDS011;41907;47.848;9.000;2022-09-27T05:41:33;6.20;;;4.75;;
56037;SDS011;41907;47.848;9.000;2022-09-27T05:43:58;3.97;;;2.38;;
56037;SDS011;41907;47.848;9.000;2022-09-27T05:46:24;3.60;;;2.53;;
56037;SDS011;41907;47.848;9.000;2022-09-27T05:48:49;2.92;;;1.38;;
56037;SDS011;41907;47.848;9.000;2022-09-27T05:51:14;3.67;;;1.20;;
56037;SDS011;41907;47.848;9.000;2022-09-27T05:53:40;4.45;;;2.67;;
56037;SDS011;41907;47.848;9.000;2022-09-27T05:56:06;14.88;;;12.05;;
56037;SDS011;41907;47.848;9.000;2022-09-27T05:58:31;4.05;;;3.40;;
56037;SDS011;41907;47.848;9.000;2022-09-27T06:00:58;6.13;;;5.30;;
56037;SDS011;41907;47.848;9.000;2022-09-27T06:03:24;6.60;;;3.80;;
56037;SDS011;41907;47.848;9.000;2022-09-27T06:05:49;4.07;;;2.10;;
56037;SDS011;41907;47.848;9.000;2022-09-27T06:08:14;4.40;;;3.47;;
56037;SDS011;41907;47.848;9.000;2022-09-27T06:10:40;5.43;;;5.03;;
56037;SDS011;41907;47.848;9.000;2022-09-27T06:13:06;4.82;;;3.30;;
56037;SDS011;41907;47.848;9.000;2022-09-27T06:15:37;2.53;;;1.70;;
56037;SDS011;41907;47.848;9.000;2022-09-27T06:18:04;2.53;;;2.33;;
56037;SDS011;41907;47.848;9.000;2022-09-27T06:20:33;2.22;;;1.00;;
56037;SDS011;41907;47.848;9.000;2022-09-27T06:23:03;4.57;;;1.60;;
56037;SDS011;41907;47.848;9.000;2022-09-27T06:25:34;10.10;;;3.80;;
56037;SDS011;41907;47.848;9.000;2022-09-27T06:28:00;13.57;;;4.47;;
56037;SDS011;41907;47.848;9.000;2022-09-27T06:30:26;1.73;;;1.27;;
56037;SDS011;41907;47.848;9.000;2022-09-27T06:32:58;1.65;;;0.90;;
56037;SDS011;41907;47.848;9.000;2022-09-27T06:35:26;0.57;;;0.57;;
56037;SDS011;41907;47.848;9.000;2022-09-27T06:37:52;0.70;;;0.47;;
56037;SDS011;41907;47.848;9.000;2022-09-27T06:40:18;0.50;;;0.47;;
56037;SDS011;41907;47.848;9.000;2022-09-27T06:42:44;0.30;;;0.22;;
56037;SDS011;41907;47.848;9.000;2022-09-27T06:45:10;1.95;;;0.50;;
56037;SDS011;41907;47.848;9.000;2022-09-27T06:47:36;1.13;;;0.40;;
56037;SDS011;41907;47.848;9.000;2022-09-27T06:50:03;0.88;;;0.50;;
56037;SDS011;41907;47.848;9.000;2022-09-27T06:52:33;1.13;;;0.20;;
56037;SDS011;41907;47.848;9.000;2022-09-27T06:55:00;0.57;;;0.40;;
56037;SDS011;41907;47.848;9.000;2022-09-27T06:57:26;0.35;;;0.35;;
56037;SDS011;41907;47.848;9.000;2022-09-27T07:00:10;1.02;;;0.40;;
56037;SDS011;41907;47.848;9.000;2022-09-27T07:02:49;0.20;;;0.20;;
56037;SDS011;41907;47.848;9.000;2022-09-27T07:05:18;1.30;;;0.30;;
56037;SDS011;41907;47.848;9.000;2022-09-27T07:07:44;0.40;;;0.40;;
56037;SDS011;41907;47.848;9.000;2022-09-27T07:10:10;2.05;;;0.60;;
56037;SDS011;41907;47.848;9.000;2022-09-27T07:12:36;3.17;;;0.80;;
56037;SDS011;41907;47.848;9.000;2022-09-27T07:15:02;1.02;;;0.70;;
56037;SDS011;41907;47.848;9.000;2022-09-27T07:17:28;0.77;;;0.60;;
56037;SDS011;41907;47.848;9.000;2022-09-27T07:19:53;0.95;;;0.90;;
56037;SDS011;41907;47.848;9.000;2022-09-27T07:22:19;2.85;;;1.10;;
56037;SDS011;41907;47.848;9.000;2022-09-27T07:24:44;0.80;;;0.80;;
56037;SDS011;41907;47.848;9.000;2022-09-27T07:27:10;3.38;;;1.10;;
56037;SDS011;41907;47.848;9.000;2022-09-27T07:29:35;1.90;;;1.13;;
56037;SDS011;41907;47.848;9.000;2022-09-27T07:32:01;1.50;;;1.00;;
56037;SDS011;41907;47.848;9.000;2022-09-27T07:34:27;3.03;;;1.27;;
56037;SDS011;41907;47.848;9.000;2022-09-27T07:36:57;4.22;;;2.25;;
56037;SDS011;41907;47.848;9.000;2022-09-27T07:39:23;3.38;;;1.80;;
56037;SDS011;41907;47.848;9.000;2022-09-27T07:41:49;2.25;;;2.05;;
56037;SDS011;41907;47.848;9.000;2022-09-27T07:44:14;4.00;;;1.85;;
56037;SDS011;41907;47.848;9.000;2022-09-27T07:46:40;5.47;;;1.85;;
56037;SDS011;41907;47.848;9.000;2022-09-27T07:49:05;4.53;;;2.78;;
56037;SDS011;41907;47.848;9.000;2022-09-27T07:51:31;3.45;;;1.58;;
56037;SDS011;41907;47.848;9.000;2022-09-27T07:53:57;2.80;;;0.85;;
56037;SDS011;41907;47.848;9.000;2022-09-27T07:56:25;2.88;;;1.95;;
56037;SDS011;41907;47.848;9.000;2022-09-27T07:58:51;4.70;;;2.72;;
56037;SDS011;41907;47.848;9.000;2022-09-27T08:01:16;3.45;;;1.58;;
56037;SDS011;41907;47.848;9.000;2022-09-27T08:03:41;2.38;;;1.40;;
56037;SDS011;41907;47.848;9.000;2022-09-27T08:06:07;1.92;;;0.80;;
56037;SDS011;41907;47.848;9.000;2022-09-27T08:08:33;2.53;;;1.55;;
56037;SDS011;41907;47.848;9.000;2022-09-27T08:10:59;2.40;;;1.13;;
56037;SDS011;41907;47.848;9.000;2022-09-27T08:13:24;3.30;;;2.50;;
56037;SDS011;41907;47.848;9.000;2022-09-27T08:15:49;4.57;;;4.28;;
56037;SDS011;41907;47.848;9.000;2022-09-27T08:18:16;2.00;;;1.90;;
56037;SDS011;41907;47.848;9.000;2022-09-27T08:20:42;4.72;;;2.72;;
56037;SDS011;41907;47.848;9.000;2022-09-27T08:23:08;3.08;;;1.48;;
56037;SDS011;41907;47.848;9.000;2022-09-27T08:25:33;3.28;;;1.73;;
56037;SDS011;41907;47.848;9.000;2022-09-27T08:28:00;8.68;;;3.40;;
56037;SDS011;41907;47.848;9.000;2022-09-27T08:30:28;6.70;;;5.68;;
56037;SDS011;41907;47.848;9.000;2022-09-27T08:32:59;3.15;;;2.85;;
56037;SDS011;41907;47.848;9.000;2022-09-27T08:35:27;8.45;;;5.03;;
56037;SDS011;41907;47.848;9.000;2022-09-27T08:37:54;8.38;;;6.47;;
56037;SDS011;41907;47.848;9.000;2022-09-27T08:40:26;6.57;;;3.22;;
56037;SDS011;41907;47.848;9.000;2022-09-27T08:43:17;3.90;;;3.45;;
56037;SDS011;41907;47.848;9.000;2022-09-27T08:46:09;2.78;;;2.58;;
56037;SDS011;41907;47.848;9.000;2022-09-27T08:48:46;4.30;;;4.00;;
56037;SDS011;41907;47.848;9.000;2022-09-27T08:51:17;3.33;;;1.73;;
56037;SDS011;41907;47.848;9.000;2022-09-27T08:53:50;3.63;;;3.33;;
56037;SDS011;41907;47.848;9.000;2022-09-27T08:56:21;0.93;;;0.70;;
56037;SDS011;41907;47.848;9.000;2022-09-27T08:58:51;0.50;;;0.40;;
56037;SDS011;41907;47.848;9.000;2022-09-27T09:01:25;1.50;;;1.23;;
56037;SDS011;41907;47.848;9.000;2022-09-27T09:03:54;1.02;;;0.68;;
56037;SDS011;41907;47.848;9.000;2022-09-27T09:12:09;0.63;;;0.40;;
56037;SDS011;41907;47.848;9.000;2022-09-27T09:20:22;2.03;;;1.70;;
56037;SDS011;41907;47.848;9.000;2022-09-27T09:25:46;4.15;;;2.33;;
56037;SDS011;41907;47.848;9.000;2022-09-27T09:34:15;8.80;;;8.00;;
56037;SDS011;41907;47.848;9.000;2022-09-27T09:36:52;6.28;;;3.83;;
56037;SDS011;41907;47.848;9.000;2022-09-27T09:39:23;3.28;;;2.08;;
56037;SDS011;41907;47.848;9.000;2022-09-27T09:42:05;4.22;;;3.83;;
56037;SDS011;41907;47.848;9.000;2022-09-27T09:44:46;2.85;;;2.58;;
56037;SDS011;41907;47.848;9.000;2022-09-27T09:47:26;6.30;;;4.28;;
56037;SDS011;41907;47.848;9.000;2022-09-27T09:50:00;4.88;;;3.88;;
56037;SDS011;41907;47.848;9.000;2022-09-27T09:52:41;3.47;;;2.53;;
56037;SDS011;41907;47.848;9.000;2022-09-27T09:55:22;2.40;;;2.20;;
56037;SDS011;41907;47.848;9.000;2022-09-27T10:00:46;2.00;;;1.60;;
56037;SDS011;41907;47.848;9.000;2022-09-27T10:03:13;1.88;;;1.00;;
56037;SDS011;41907;47.848;9.000;2022-09-27T10:05:38;2.28;;;1.20;;
56037;SDS011;41907;47.848;9.000;2022-09-27T10:08:10;3.35;;;1.02;;
56037;SDS011;41907;47.848;9.000;2022-09-27T10:10:41;2.15;;;1.65;;
56037;SDS011;41907;47.848;9.000;2022-09-27T10:13:07;1.65;;;0.80;;
56037;SDS011;41907;47.848;9.000;2022-09-27T10:15:42;0.70;;;0.55;;
56037;SDS011;41907;47.848;9.000;2022-09-27T10:18:11;2.63;;;0.65;;
56037;SDS011;41907;47.848;9.000;2022-09-27T10:20:43;1.13;;;0.70;;
56037;SDS011;41907;47.848;9.000;2022-09-27T10:23:15;1.70;;;0.60;;
56037;SDS011;41907;47.848;9.000;2022-09-27T10:26:03;0.40;;;0.38;;
56037;SDS011;41907;47.848;9.000;2022-09-27T10:28:30;1.67;;;0.70;;
56037;SDS011;41907;47.848;9.000;2022-09-27T10:30:58;1.00;;;0.30;;
56037;SDS011;41907;47.848;9.000;2022-09-27T10:33:25;16.95;;;4.90;;
56037;SDS011;41907;47.848;9.000;2022-09-27T10:35:52;8.18;;;4.63;;
56037;SDS011;41907;47.848;9.000;2022-09-27T10:40:43;1.58;;;1.15;;
56037;SDS011;41907;47.848;9.000;2022-09-27T10:45:46;2.17;;;0.50;;
56037;SDS011;41907;47.848;9.000;2022-09-27T10:48:17;1.20;;;0.50;;
56037;SDS011;41907;47.848;9.000;2022-09-27T10:51:00;1.13;;;0.95;;
56037;SDS011;41907;47.848;9.000;2022-09-27T10:53:28;0.98;;;0.63;;
56037;SDS011;41907;47.848;9.000;2022-09-27T10:55:56;1.27;;;0.70;;
56037;SDS011;41907;47.848;9.000;2022-09-27T10:58:33;0.88;;;0.32;;
56037;SDS011;41907;47.848;9.000;2022-09-27T11:01:01;0.90;;;0.60;;
56037;SDS011;41907;47.848;9.000;2022-09-27T11:03:34;0.57;;;0.28;;
56037;SDS011;41907;47.848;9.000;2022-09-27T11:09:43;2.10;;;0.57;;
56037;SDS011;41907;47.848;9.000;2022-09-27T11:12:10;1.42;;;1.20;;
56037;SDS011;41907;47.848;9.000;2022-09-27T11:14:37;0.85;;;0.50;;
56037;SDS011;41907;47.848;9.000;2022-09-27T11:17:11;1.00;;;0.45;;
56037;SDS011;41907;47.848;9.000;2022-09-27T11:28:15;1.33;;;1.17;;
56037;SDS011;41907;47.848;9.000;2022-09-27T11:36:31;1.20;;;1.10;;
56037;SDS011;41907;47.848;9.000;2022-09-27T11:48:26;1.83;;;1.73;;
56037;SDS011;41907;47.848;9.000;2022-09-27T11:59:04;1.88;;;1.52;;
56037;SDS011;41907;47.848;9.000;2022-09-27T12:01:55;0.98;;;0.95;;
56037;SDS011;41907;47.848;9.000;2022-09-27T12:04:48;2.75;;;0.70;;
56037;SDS011;41907;47.848;9.000;2022-09-27T12:09:59;2.15;;;1.83;;
56037;SDS011;41907;47.848;9.000;2022-09-27T12:12:28;1.85;;;0.80;;
56037;SDS011;41907;47.848;9.000;2022-09-27T12:14:58;1.40;;;1.30;;
56037;SDS011;41907;47.848;9.000;2022-09-27T12:17:34;2.47;;;1.27;;
56037;SDS011;41907;47.848;9.000;2022-09-27T12:20:09;1.20;;;0.57;;
56037;SDS011;41907;47.848;9.000;2022-09-27T12:23:02;0.75;;;0.40;;
56037;SDS011;41907;47.848;9.000;2022-09-27T12:25:30;0.80;;;0.80;;
56037;SDS011;41907;47.848;9.000;2022-09-27T12:30:58;1.00;;;1.00;;
56037;SDS011;41907;47.848;9.000;2022-09-27T12:33:41;1.40;;;1.25;;
56037;SDS011;41907;47.848;9.000;2022-09-27T12:36:14;1.42;;;0.80;;
56037;SDS011;41907;47.848;9.000;2022-09-27T12:38:45;0.68;;;0.50;;
56037;SDS011;41907;47.848;9.000;2022-09-27T12:41:18;2.65;;;0.60;;
56037;SDS011;41907;47.848;9.000;2022-09-27T12:43:47;3.40;;;1.70;;
56037;SDS011;41907;47.848;9.000;2022-09-27T12:46:27;3.53;;;0.70;;
56037;SDS011;41907;47.848;9.000;2022-09-27T12:52:00;1.02;;;0.73;;
56037;SDS011;41907;47.848;9.000;2022-09-27T13:07:45;1.50;;;1.17;;
56037;SDS011;41907;47.848;9.000;2022-09-27T13:13:18;0.88;;;0.70;;
56037;SDS011;41907;47.848;9.000;2022-09-27T13:15:46;3.65;;;0.80;;
56037;SDS011;41907;47.848;9.000;2022-09-27T13:21:01;4.60;;;1.38;;
56037;SDS011;41907;47.848;9.000;2022-09-27T13:25:54;2.38;;;0.70;;
56037;SDS011;41907;47.848;9.000;2022-09-27T13:31:01;3.17;;;1.60;;
56037;SDS011;41907;47.848;9.000;2022-09-27T13:47:03;0.50;;;0.40;;
56037;SDS011;41907;47.848;9.000;2022-09-27T13:49:42;1.48;;;0.63;;
56037;SDS011;41907;47.848;9.000;2022-09-27T13:55:00;2.97;;;0.75;;
56037;SDS011;41907;47.848;9.000;2022-09-27T14:00:18;1.65;;;1.13;;
56037;SDS011;41907;47.848;9.000;2022-09-27T14:05:26;5.00;;;3.03;;
56037;SDS011;41907;47.848;9.000;2022-09-27T14:07:56;1.05;;;1.00;;
56037;SDS011;41907;47.848;9.000;2022-09-27T14:10:26;3.75;;;3.45;;
56037;SDS011;41907;47.848;9.000;2022-09-27T14:12:53;1.67;;;0.68;;
56037;SDS011;41907;47.848;9.000;2022-09-27T14:15:22;2.90;;;1.73;;
56037;SDS011;41907;47.848;9.000;2022-09-27T14:17:51;3.97;;;1.33;;
56037;SDS011;41907;47.848;9.000;2022-09-27T14:20:28;3.15;;;1.40;;
56037;SDS011;41907;47.848;9.000;2022-09-27T14:23:01;3.58;;;1.27;;
56037;SDS011;41907;47.848;9.000;2022-09-27T14:25:27;1.58;;;0.60;;
56037;SDS011;41907;47.848;9.000;2022-09-27T14:27:53;5.85;;;1.27;;
56037;SDS011;41907;47.848;9.000;2022-09-27T14:30:19;2.63;;;1.25;;
56037;SDS011;41907;47.848;9.000;2022-09-27T14:32:49;1.20;;;1.00;;
56037;SDS011;41907;47.848;9.000;2022-09-27T14:35:20;1.70;;;0.80;;
56037;SDS011;41907;47.848;9.000;2022-09-27T14:38:16;7.15;;;3.20;;
56037;SDS011;41907;47.848;9.000;2022-09-27T14:43:25;3.50;;;1.70;;
56037;SDS011;41907;47.848;9.000;2022-09-27T14:45:52;1.17;;;0.88;;
56037;SDS011;41907;47.848;9.000;2022-09-27T14:48:26;6.85;;;6.03;;
56037;SDS011;41907;47.848;9.000;2022-09-27T14:51:04;4.97;;;4.22;;
56037;SDS011;41907;47.848;9.000;2022-09-27T14:56:14;26.55;;;14.30;;
56037;SDS011;41907;47.848;9.000;2022-09-27T14:58:43;9.90;;;8.90;;
56037;SDS011;41907;47.848;9.000;2022-09-27T15:01:13;2.38;;;1.70;;
56037;SDS011;41907;47.848;9.000;2022-09-27T15:03:40;1.35;;;1.10;;
56037;SDS011;41907;47.848;9.000;2022-09-27T15:06:08;0.80;;;0.50;;
56037;SDS011;41907;47.848;9.000;2022-09-27T15:08:34;1.92;;;0.80;;
56037;SDS011;41907;47.848;9.000;2022-09-27T15:11:02;8.98;;;3.50;;
56037;SDS011;41907;47.848;9.000;2022-09-27T15:13:29;2.33;;;1.27;;
56037;SDS011;41907;47.848;9.000;2022-09-27T15:15:56;3.40;;;0.93;;
56037;SDS011;41907;47.848;9.000;2022-09-27T15:18:33;0.52;;;0.50;;
56037;SDS011;41907;47.848;9.000;2022-09-27T15:21:11;0.98;;;0.77;;
56037;SDS011;41907;47.848;9.000;2022-09-27T15:23:39;3.85;;;0.70;;
56037;SDS011;41907;47.848;9.000;2022-09-27T15:26:16;1.20;;;0.90;;
56037;SDS011;41907;47.848;9.000;2022-09-27T15:28:48;1.27;;;0.43;;
56037;SDS011;41907;47.848;9.000;2022-09-27T15:31:16;1.15;;;0.70;;
56037;SDS011;41907;47.848;9.000;2022-09-27T15:33:44;2.25;;;0.50;;
56037;SDS011;41907;47.848;9.000;2022-09-27T15:36:18;1.38;;;1.27;;
56037;SDS011;41907;47.848;9.000;2022-09-27T15:39:17;0.70;;;0.68;;
56037;SDS011;41907;47.848;9.000;2022-09-27T15:49:56;2.05;;;1.70;;
56037;SDS011;41907;47.848;9.000;2022-09-27T15:52:46;3.28;;;2.45;;
56037;SDS011;41907;47.848;9.000;2022-09-27T15:55:20;2.00;;;1.80;;
56037;SDS011;41907;47.848;9.000;2022-09-27T15:58:06;3.77;;;3.47;;
56037;SDS011;41907;47.848;9.000;2022-09-27T16:00:49;2.97;;;1.00;;
56037;SDS011;41907;47.848;9.000;2022-09-27T16:03:19;6.45;;;5.35;;
56037;SDS011;41907;47.848;9.000;2022-09-27T16:05:44;20.88;;;14.10;;
56037;SDS011;41907;47.848;9.000;2022-09-27T16:08:09;15.43;;;13.77;;
56037;SDS011;41907;47.848;9.000;2022-09-27T16:10:36;16.17;;;11.93;;
56037;SDS011;41907;47.848;9.000;2022-09-27T16:13:03;6.18;;;5.32;;
56037;SDS011;41907;47.848;9.000;2022-09-27T16:15:29;6.38;;;3.42;;
56037;SDS011;41907;47.848;9.000;2022-09-27T16:17:55;5.25;;;4.75;;
56037;SDS011;41907;47.848;9.000;2022-09-27T16:20:22;5.93;;;5.15;;
56037;SDS011;41907;47.848;9.000;2022-09-27T16:22:50;17.05;;;13.18;;
56037;SDS011;41907;47.848;9.000;2022-09-27T16:25:17;20.30;;;14.70;;
56037;SDS011;41907;47.848;9.000;2022-09-27T16:27:42;11.50;;;7.78;;
56037;SDS011;41907;47.848;9.000;2022-09-27T16:30:08;13.15;;;9.77;;
56037;SDS011;41907;47.848;9.000;2022-09-27T16:32:38;7.05;;;4.05;;
56037;SDS011;41907;47.848;9.000;2022-09-27T16:35:04;12.85;;;8.77;;
56037;SDS011;41907;47.848;9.000;2022-09-27T16:37:30;9.93;;;6.88;;
56037;SDS011;41907;47.848;9.000;2022-09-27T16:39:55;14.02;;;11.80;;
56037;SDS011;41907;47.848;9.000;2022-09-27T16:42:21;9.63;;;7.35;;
56037;SDS011;41907;47.848;9.000;2022-09-27T16:44:46;11.32;;;6.45;;
56037;SDS011;41907;47.848;9.000;2022-09-27T16:47:13;15.98;;;10.73;;
56037;SDS011;41907;47.848;9.000;2022-09-27T16:49:38;7.57;;;5.00;;
56037;SDS011;41907;47.848;9.000;2022-09-27T16:52:22;6.80;;;3.72;;
56037;SDS011;41907;47.848;9.000;2022-09-27T16:54:47;6.53;;;3.35;;
56037;SDS011;41907;47.848;9.000;2022-09-27T16:57:12;4.95;;;3.50;;
56037;SDS011;41907;47.848;9.000;2022-09-27T16:59:38;3.53;;;2.88;;
56037;SDS011;41907;47.848;9.000;2022-09-27T17:02:03;11.35;;;7.32;;
56037;SDS011;41907;47.848;9.000;2022-09-27T17:04:29;13.25;;;8.65;;
56037;SDS011;41907;47.848;9.000;2022-09-27T17:06:55;4.72;;;4.30;;
56037;SDS011;41907;47.848;9.000;2022-09-27T17:09:20;13.30;;;11.90;;
56037;SDS011;41907;47.848;9.000;2022-09-27T17:11:46;3.90;;;3.33;;
56037;SDS011;41907;47.848;9.000;2022-09-27T17:14:12;6.35;;;4.88;;
56037;SDS011;41907;47.848;9.000;2022-09-27T17:16:40;2.60;;;2.22;;
56037;SDS011;41907;47.848;9.000;2022-09-27T17:19:05;1.92;;;1.50;;
56037;SDS011;41907;47.848;9.000;2022-09-27T17:21:30;10.57;;;5.55;;
56037;SDS011;41907;47.848;9.000;2022-09-27T17:23:56;5.32;;;2.90;;
56037;SDS011;41907;47.848;9.000;2022-09-27T17:26:22;15.00;;;11.68;;
56037;SDS011;41907;47.848;9.000;2022-09-27T17:28:48;6.45;;;3.33;;
56037;SDS011;41907;47.848;9.000;2022-09-27T17:31:15;3.10;;;1.90;;
56037;SDS011;41907;47.848;9.000;2022-09-27T17:33:43;3.38;;;2.20;;
56037;SDS011;41907;47.848;9.000;2022-09-27T17:36:11;3.60;;;3.17;;
56037;SDS011;41907;47.848;9.000;2022-09-27T17:38:41;7.20;;;6.50;;
56037;SDS011;41907;47.848;9.000;2022-09-27T17:41:08;2.60;;;2.13;;
56037;SDS011;41907;47.848;9.000;2022-09-27T17:43:35;8.27;;;6.35;;
56037;SDS011;41907;47.848;9.000;2022-09-27T17:46:11;7.85;;;4.82;;